Strona główna
METAR-TAF:

METAR-TAF

Lotnisko :

Port lotniczy Pecz-Pogány

Pecz, Węgry

Szerokość geograficzna: 46-06N, Długość geograficzna: 018-14E, wysokość: 201 m

Aktualna obserwacja pogody

Raport powstał 46 minut temu, godzina 08:45 UTC
Wiatr 9 kt od południe
Temperatura 5°C
Wilgotność 52%
Ciśnienie 1017 hPa
Widzialność 10 km lub więcej
Brak chmur poniżej 1500 m i brak chmur cumulonimbus

METAR: LHPP 290845Z 17009KT CAVOK 05/M04 Q1017

czas: 10:31 (09:31 UTC)

Prognoza

Raport powstał 1 godzina i 16 minut temu, godzina 08:15 UTC
Prognoza ważna od 29 godzina 09 UTC do 29 godzina 18 UTC
Wiatr 4 kt od południe
Widzialność 10 km lub więcej
Brak chmur poniżej 1500 m i brak chmur cumulonimbus
Stopniowe zmiany
od 29 godzina 09 UTC do 29 godzina 12 UTC
Wiatr 12 kt od południe
Stopniowe zmiany
od 29 godzina 16 UTC do 29 godzina 18 UTC
Wiatr 7 kt od południe

TAF: LHPP 290815Z 2909/2918 18004KT CAVOK BECMG 2909/2912 18012KT BECMG 2916/2918 18007KT

Obserwacja i prognoza pogody dla ponad 4000 lotnisk (raport METAR i TAF).

Dostępne stacje oznaczono żółtymi i czerwonymi punktami na mapie.

Najedź kursorem aby zobaczyć nazwę stacji.

Kliknij aby zobaczyć obserwacje i prognozy pogody.

Aby zmienić mapę: kliknij na zielony przycisk z czarnym krzyżykiem, aby powiększyć; na zielony przycisk z myślnikiem, aby pomniejszyć; na zielone strzałki, aby przejść do map sąsiednich.


METAR-TAF: